Latest Coastal Weather Observations for Wynyard

IDV60701

Issued at 7:11 am EST Monday 2 May 2016 (issued every 10 minutes, with the page automatically refreshed every 10 minutes)

About coastal observations | Map of coastal stations | Coastal observations for VIC | Marine services | Other Formats
Station Details ID: 091107 Name: WYNYARD AIRPORT Lat: -41.00 Lon: 145.73 Height: 12.0 m
Data from the previous 72 hours. | See also: Recent months at Wynyard
Date/Time
EST
Temp

°C
Wind Pressure Rain
since 9am
mm
Weather Cloud Vis
km
Sea
Height
m
Swell
Dir
 
Speed
knots
Gust
knots
hPa Trend Height
m
Period
s
Dir
02/07:00am 6.2 NNW 4 5 1006.9 - 2.4 - Partly cloudy 10 - - - -
02/06:30am 6.3 CALM 0 0 1006.9 - 2.4 - Partly cloudy 10 - - - -
02/06:00am 6.4 NNE 2 4 1007.1 - 2.4 - Mostly cloudy 10 - - - -
02/05:30am 6.5 S 1 6 1007.1 - 2.4 - Partly cloudy 10 - - - -
02/05:00am 7.5 SSW 4 6 1007.3 - 2.4 - Partly cloudy 10 - - - -
02/04:30am 7.4 SW 4 8 1007.3 - 2.4 - Partly cloudy 10 - - - -
02/04:00am 7.3 W 5 7 1007.3 - 2.4 - Partly cloudy 10 - - - -
02/03:30am 7.4 W 7 9 1007.6 - 2.4 - Partly cloudy 10 - - - -
02/03:00am 6.5 WNW 3 5 1007.7 - 2.2 - Cloudy 10 - - - -
02/02:30am 7.4 W 3 5 1007.7 - 2.2 - Partly cloudy 10 - - - -
02/02:00am 8.0 NW 7 9 1007.7 - 2.2 - Partly cloudy 10 - - - -
02/01:30am 7.1 NW 3 5 1007.8 - 2.2 - Partly cloudy 10 - - - -
02/01:00am 7.3 WNW 5 7 1007.7 - 2.2 - - 10 - - - -
02/12:30am 7.8 W 8 10 1007.6 - 2.2 - - 10 - - - -
02/12:00am 8.6 WNW 10 13 1007.8 - 2.2 - Mostly cloudy 10 - - - -
 
Date/Time
EST
Temp

°C
Wind Pressure Rain
since 9am
mm
Weather Cloud Vis
km
Sea
Height
m
Swell
Dir
 
Speed
knots
Gust
knots
hPa Trend Height
m
Period
s
Dir
01/11:30pm 8.1 WNW 6 9 1007.7 - 2.2 - - 10 - - - -
01/11:00pm 8.5 WNW 10 13 1007.5 - 2.2 - - 10 - - - -
01/10:30pm 8.9 NW 6 8 1007.5 - 2.2 - Partly cloudy 10 - - - -
01/10:00pm 8.7 W 8 11 1007.5 - 2.2 - Partly cloudy 10 - - - -
01/09:30pm 9.2 W 11 15 1007.3 - 2.2 - - 10 - - - -
01/09:00pm 9.3 W 12 15 1006.9 - 2.2 - Mostly clear 10 - - - -
01/08:30pm 9.5 W 17 23 1006.4 - 2.2 - Partly cloudy 10 - - - -
01/08:00pm 9.6 W 13 18 1006.1 - 2.2 - Partly cloudy 10 - - - -
01/07:30pm 9.5 WSW 13 20 1005.4 - 2.2 - Partly cloudy 10 - - - -
01/07:00pm 9.5 W 17 22 1004.8 - 2.0 - Partly cloudy 10 - - - -
01/06:30pm 10.0 W 17 23 1004.1 - 2.0 - Partly cloudy 10 - - - -
01/06:00pm 10.4 W 17 22 1003.5 - 2.0 - Mostly clear 10 - - - -
01/05:30pm 10.1 W 20 33 1002.4 - 2.0 - Partly cloudy 10 - - - -
01/05:00pm 10.7 W 19 31 1001.6 - 2.0 - Partly cloudy 10 - - - -
01/04:43pm 10.9 W 23 33 1001.0 - 2.0 - Partly cloudy 7 - - - -
01/04:30pm 11.7 W 23 31 1000.4 - 1.8 - Partly cloudy 10 - - - -
01/04:00pm 12.8 W 22 31 999.7 - 1.8 - Partly cloudy 10 - - - -
01/03:37pm 12.9 W 23 33 999.2 - 1.8 - Partly cloudy 10 - - - -
01/03:30pm 13.2 W 22 31 998.8 - 1.8 - Partly cloudy 10 - - - -
01/03:00pm 12.9 W 19 31 998.5 - 1.8 - Partly cloudy 10 - - - -
01/02:30pm 11.9 W 21 34 997.8 - 1.8 - Partly cloudy 10 - - - -
01/02:00pm 11.7 W 21 34 997.1 - 1.8 - Partly cloudy 10 - - - -
01/01:30pm 11.1 WSW 22 34 996.0 - 1.8 - Partly cloudy 10 - - - -
01/01:00pm 10.9 W 27 38 995.6 - 1.8 - Partly cloudy 7 - - - -
01/12:58pm 11.0 W 27 38 995.6 - 1.8 - Partly cloudy 8 - - - -
01/12:34pm 11.2 W 33 44 995.3 - 1.2 - Partly cloudy 5 - - - -
01/12:30pm 11.4 W 32 44 995.3 - 1.2 - Partly cloudy 6 - - - -
01/12:28pm 11.5 W 32 44 995.1 - 1.0 - Partly cloudy 6 - - - -
01/12:14pm 12.1 W 28 46 994.2 - 1.0 - Partly cloudy 3 - - - -
01/12:12pm 12.0 W 27 45 994.0 - 1.0 - Partly cloudy 3 - - - -
01/12:10pm 12.2 W 24 45 994.0 - 1.0 - Partly cloudy 3 - - - -
01/12:04pm 12.5 WNW 25 33 993.5 - 0.6 - Partly cloudy 5 - - - -
01/12:00pm 13.0 WNW 25 33 993.1 - 0.4 Recent precip. Cloudy 10 - - - -
01/11:34am 13.7 W 19 29 992.9 - 0.4 - Partly cloudy 4 - - - -
01/11:33am 13.7 W 20 29 992.9 - 0.4 - Partly cloudy 5 - - - -
01/11:31am 13.9 WNW 19 29 992.9 - 0.2 - Partly cloudy 8 - - - -
01/11:30am 14.3 WNW 19 28 992.9 - 0.2 - Partly cloudy 8 - - - -
01/11:02am 16.1 WNW 19 29 992.4 - 0.2 - Partly cloudy 10 - - - -
01/11:00am 16.0 WNW 17 23 992.5 - 0.2 - Partly cloudy 10 - - - -
01/10:30am 14.9 NNW 18 26 992.8 - 0.2 - Partly cloudy 7 - - - -
01/10:00am 15.2 N 18 27 993.7 - 0.0 - Partly cloudy 10 - - - -
01/09:30am 16.0 NNW 15 25 994.9 - 0.0 - Partly cloudy 10 - - - -
01/09:27am 15.6 NNW 15 25 994.9 - 0.0 - Partly cloudy 10 - - - -
01/09:03am 12.6 NNW 11 16 995.8 - 0.0 - Partly cloudy 10 - - - -
01/09:00am 12.5 NNW 12 17 995.9 - 9.8 Recent precip. Cloudy 10 - - - -
01/08:39am 14.1 N 17 24 996.9 - 8.6 - Partly cloudy 4 - - - -
01/08:30am 15.8 N 16 23 996.2 - 7.0 - Partly cloudy 10 - - - -
01/08:03am 15.3 NNE 15 21 996.7 - 7.0 - Partly cloudy 10 - - - -
01/08:00am 15.3 NNE 15 21 996.8 - 7.0 - Partly cloudy 10 - - - -
01/07:50am 15.1 NNE 15 25 996.8 - 7.0 - Partly cloudy 10 - - - -
01/07:30am 14.7 N 8 14 997.3 - 7.0 - Partly cloudy 10 - - - -
01/07:20am 14.6 N 8 12 997.5 - 7.0 - Partly cloudy 10 - - - -
01/07:00am 14.4 NNE 10 13 997.0 - 7.0 - Partly cloudy 8 - - - -
01/06:58am 14.3 NNE 9 13 997.0 - 7.0 - Partly cloudy 8 - - - -
01/06:43am 13.7 NNW 6 9 998.6 - 6.6 - Partly cloudy 5 - - - -
01/06:30am 13.3 NW 5 9 998.5 - 5.6 - Partly cloudy 6 - - - -
01/06:00am 13.1 SW 5 7 999.0 - 3.8 Rain Cloudy 9 - - - -
01/05:30am 13.6 WNW 12 15 999.9 - 2.4 - Partly cloudy 7 - - - -
01/05:00am 14.3 WNW 11 14 999.7 - 0.8 - Partly cloudy 10 - - - -
01/04:30am 16.1 NW 19 29 1000.2 - 0.4 - Partly cloudy 10 - - - -
01/04:25am 17.0 NNW 21 39 1000.2 - 0.4 - Partly cloudy 10 - - - -
01/04:18am 18.6 N 20 39 999.8 - 0.0 - Partly cloudy 10 - - - -
01/04:13am 19.1 N 16 29 999.5 - 0.0 - Partly cloudy 10 - - - -
01/04:00am 18.4 N 14 20 999.7 - 0.0 - Partly cloudy 10 - - - -
01/03:30am 18.1 N 10 15 1000.4 - 0.0 - Partly cloudy 10 - - - -
01/03:00am 17.5 NE 6 11 1001.0 - 0.0 - - 10 - - - -
01/02:30am 16.3 E 5 8 1001.8 - 0.0 - - 10 - - - -
01/02:00am 16.2 ENE 4 7 1002.3 - 0.0 - Partly cloudy 10 - - - -
01/01:30am 16.5 E 6 9 1003.0 - 0.0 - Partly cloudy 10 - - - -
01/01:00am 16.1 ESE 8 13 1003.5 - 0.0 - Partly cloudy 10 - - - -
01/12:30am 15.2 SE 7 9 1004.7 - 0.0 - - 10 - - - -
01/12:20am 14.2 SE 5 7 1005.1 - 0.0 - Partly cloudy 8 - - - -
01/12:00am 14.6 ESE 4 5 1005.5 - 0.0 - Mostly clear 2 - - - -
 
Date/Time
EST
Temp

°C
Wind Pressure Rain
since 9am
mm
Weather Cloud Vis
km
Sea
Height
m
Swell
Dir
 
Speed
knots
Gust
knots
hPa Trend Height
m
Period
s
Dir
30/11:52pm 14.6 SE 5 7 1005.8 - 0.0 - Partly cloudy 5 - - - -
30/11:30pm 15.7 SSE 4 5 1006.5 - 0.0 - Partly cloudy 9 - - - -
30/11:11pm 15.4 SE 4 4 1006.9 - 0.0 - Partly cloudy 7 - - - -
30/11:00pm 15.5 SE 3 4 1007.2 - 0.0 - Partly cloudy 3 - - - -
30/10:39pm 15.3 SE 3 4 1007.7 - 0.0 - Partly cloudy 5 - - - -
30/10:30pm 15.7 SE 3 4 1007.9 - 0.0 - Partly cloudy 8 - - - -
30/10:13pm 16.0 SSE 5 6 1008.0 - 0.0 - Partly cloudy 7 - - - -
30/10:00pm 15.6 ESE 3 5 1008.2 - 0.0 - Partly cloudy 5 - - - -
30/09:52pm 16.2 ESE 3 5 1008.2 - 0.0 - Partly cloudy 5 - - - -
30/09:30pm 16.5 E 4 6 1008.5 - 0.0 - Partly cloudy 8 - - - -
30/09:19pm 16.4 E 5 6 1008.5 - 0.0 - Partly cloudy 10 - - - -
30/09:00pm 16.8 E 4 6 1008.6 - 0.0 - Cloudy 10 - - - -
30/08:30pm 16.8 E 5 6 1008.5 - 0.0 - Partly cloudy 10 - - - -
30/08:07pm 16.8 ENE 4 6 1008.7 - 0.0 - Partly cloudy 10 - - - -
30/08:00pm 16.8 ENE 3 6 1008.8 - 0.0 - Partly cloudy 10 - - - -
30/07:30pm 16.3 ENE 4 5 1009.0 - 0.0 - Partly cloudy 10 - - - -
30/07:00pm 16.6 E 3 5 1008.9 - 0.0 - Partly cloudy 10 - - - -
30/06:30pm 16.4 SSE 4 5 1009.0 - 0.0 - Partly cloudy 10 - - - -
30/06:00pm 16.4 SSW 3 4 1008.9 - 0.0 - Cloudy 10 - - - -
30/05:30pm 17.1 NW 4 6 1008.8 - 0.0 - Partly cloudy 10 - - - -
30/05:00pm 17.4 NNW 5 9 1009.0 - 0.0 - Partly cloudy 10 - - - -
30/04:30pm 17.9 NNW 7 10 1009.3 - 0.0 - Partly cloudy 10 - - - -
30/04:00pm 18.1 NNW 8 12 1009.7 - 0.0 - Partly cloudy 10 - - - -
30/03:30pm 18.1 NNW 9 14 1009.6 - 0.0 - Partly cloudy 10 - - - -
30/03:00pm 18.3 NW 12 15 1009.8 - 0.0 - Cloudy 10 - - - -
30/02:30pm 18.8 NW 11 17 1009.9 - 0.0 - Partly cloudy 10 - - - -
30/02:00pm 18.3 NNW 12 17 1010.0 - 0.0 - Partly cloudy 10 - - - -
30/01:30pm 18.3 NNW 11 17 1010.2 - 0.0 - Partly cloudy 10 - - - -
30/01:00pm 18.1 NNW 11 15 1010.5 - 0.0 - Partly cloudy 10 - - - -
30/12:30pm 18.6 NNW 10 15 1010.8 - 0.0 - Partly cloudy 10 - - - -
30/12:00pm 19.4 N 9 15 1011.2 - 0.0 - Cloudy 10 - - - -
30/11:30am 19.2 NNW 11 16 1011.5 - 0.0 - Partly cloudy 10 - - - -
30/11:00am 18.2 N 13 17 1011.8 - 0.0 - Partly cloudy 10 - - - -
30/10:31am 18.0 NNW 11 17 1011.7 - 0.0 - Partly cloudy 10 - - - -
30/10:30am 18.4 NNW 11 17 1011.7 - 0.0 - Partly cloudy 10 - - - -
30/10:00am 15.9 NE 3 8 1012.1 - 0.0 - Partly cloudy 10 - - - -
30/09:30am 15.0 CALM 0 0 1012.4 - 0.0 - Partly cloudy 10 - - - -
30/09:23am 14.8 CALM 0 0 1012.4 - 0.0 - Partly cloudy 10 - - - -
30/09:00am 14.7 CALM 0 3 1012.5 - 18.2 - Cloudy 10 - - - -
30/08:41am 14.0 SSE 3 4 1012.5 - 18.2 - Partly cloudy 10 - - - -
30/08:30am 13.9 SSW 3 5 1012.7 - 18.2 - Partly cloudy 10 - - - -
30/08:00am 12.6 WSW 2 4 1012.5 - 18.2 - Partly cloudy 10 - - - -
30/07:34am 12.0 CALM 0 0 1012.4 - 18.2 - Partly cloudy 8 - - - -
30/07:30am 11.9 CALM 0 0 1012.4 - 18.2 - Partly cloudy 8 - - - -
30/07:19am 11.9 W 1 3 1012.4 - 18.2 - Partly cloudy 10 - - - -
30/07:00am 11.4 W 3 5 1012.3 - 18.2 - Partly cloudy 10 - - - -
30/06:59am 11.3 W 4 5 1012.3 - 18.2 - Partly cloudy 10 - - - -
30/06:30am 11.3 W 5 6 1012.2 - 18.2 - Partly cloudy 10 - - - -
30/06:07am 11.3 W 4 5 1012.2 - 18.2 - Partly cloudy 10 - - - -
30/06:00am 11.1 W 5 7 1012.2 - 18.2 - Cloudy 10 - - - -
30/05:48am 10.9 WNW 4 7 1012.1 - 18.2 - Partly cloudy 10 - - - -
30/05:30am 10.3 WSW 3 4 1012.1 - 18.2 - Partly cloudy 10 - - - -
30/05:10am 10.8 WSW 3 4 1012.1 - 18.2 - Partly cloudy 10 - - - -
30/05:08am 10.7 WSW 3 4 1012.1 - 18.2 - Partly cloudy 9 - - - -
30/05:00am 10.5 W 4 4 1012.2 - 18.2 - Partly cloudy 5 - - - -
30/04:30am 9.1 CALM 0 4 1012.1 - 18.2 - Partly cloudy 1 - - - -
30/04:00am 8.8 WSW 3 4 1011.9 - 18.2 - Partly cloudy 0.8 - - - -
30/03:30am 8.9 W 5 5 1012.0 - 18.2 - Partly cloudy 0.6 - - - -
30/03:00am 9.3 W 4 5 1011.9 - 18.0 - Mostly cloudy 0.4 - - - -
30/02:30am 9.5 WSW 4 5 1012.0 - 18.0 - Partly cloudy 0.3 - - - -
30/02:00am 9.4 W 4 5 1012.1 - 18.0 - - 0.3 - - - -
30/01:30am 9.3 SW 1 4 1012.1 - 18.0 - Partly cloudy 2 - - - -
30/01:00am 9.9 CALM 0 0 1012.1 - 18.0 - Partly cloudy 0.5 - - - -
30/12:30am 9.7 SSW 1 4 1012.1 - 18.0 - - 0.8 - - - -
30/12:00am 9.7 CALM 0 0 1012.2 - 18.0 - Mostly clear 2 - - - -
 
Date/Time
EST
Temp

°C
Wind Pressure Rain
since 9am
mm
Weather Cloud Vis
km
Sea
Height
m
Swell
Dir
 
Speed
knots
Gust
knots
hPa Trend Height
m
Period
s
Dir
29/11:30pm 10.0 WSW 1 4 1012.3 - 18.0 - - 0.6 - - - -
29/11:00pm 11.2 WSW 1 3 1012.5 - 18.0 - - 0.3 - - - -
29/10:30pm 13.1 W 3 4 1012.5 - 18.0 - - 10 - - - -
29/10:08pm 12.1 W 5 6 1012.6 - 18.0 - - 5 - - - -
29/10:00pm 12.9 NW 5 6 1012.5 - 18.0 - - 10 - - - -
29/09:30pm 13.5 W 5 6 1012.1 - 18.0 - - 10 - - - -
29/09:00pm 15.1 WNW 9 12 1011.9 - 18.0 - Mostly clear 10 - - - -
29/08:32pm 15.7 WNW 11 15 1011.8 - 18.0 - Partly cloudy 10 - - - -
29/08:30pm 15.7 WNW 11 15 1011.7 - 18.0 - Partly cloudy 10 - - - -
29/08:00pm 16.6 NW 13 17 1011.2 - 18.0 - Partly cloudy 10 - - - -
29/07:54pm 16.6 NW 14 20 1011.3 - 18.0 - Partly cloudy 10 - - - -
29/07:50pm 16.6 NW 14 20 1011.3 - 18.0 - Partly cloudy 10 - - - -
29/07:31pm 16.6 NNW 14 21 1011.3 - 18.0 - Partly cloudy 10 - - - -
29/07:30pm 16.6 NNW 14 21 1011.2 - 18.0 - Partly cloudy 10 - - - -
29/07:00pm 16.5 NNW 11 19 1011.1 - 18.0 - Partly cloudy 10 - - - -
29/06:43pm 16.4 NNW 14 19 1011.0 - 18.0 - Partly cloudy 10 - - - -
29/06:32pm 16.3 NNW 13 19 1010.9 - 18.0 - Partly cloudy 10 - - - -
29/06:30pm 16.3 NNW 13 19 1010.9 - 18.0 - Partly cloudy 10 - - - -
29/06:00pm 16.2 NNW 11 15 1010.9 - 18.0 Recent precip. Cloudy 10 - - - -
29/05:30pm 15.9 NW 9 13 1011.1 - 18.0 - Partly cloudy 10 - - - -
29/05:06pm 15.9 NW 11 15 1011.0 - 17.8 - Partly cloudy 10 - - - -
29/05:01pm 15.8 NW 12 17 1010.9 - 17.8 - Partly cloudy 10 - - - -
29/05:00pm 15.8 NW 12 17 1010.9 - 17.8 - Partly cloudy 10 - - - -
29/04:51pm 15.8 NW 13 20 1010.9 - 17.8 - Partly cloudy 10 - - - -
29/04:30pm 15.9 NNW 13 18 1010.9 - 16.6 - Partly cloudy 2 - - - -
29/04:00pm 15.6 NNW 13 20 1010.9 - 11.6 - Partly cloudy 4 - - - -
29/03:56pm 15.7 NNW 12 18 1011.0 - 11.2 - Partly cloudy 5 - - - -
29/03:37pm 15.9 NNW 13 18 1010.7 - 9.8 - Partly cloudy 7 - - - -
29/03:30pm 16.1 NNW 11 15 1010.8 - 9.4 - Partly cloudy 7 - - - -
29/03:26pm 16.1 NNW 11 16 1010.9 - 9.4 - Partly cloudy 6 - - - -
29/03:14pm 16.1 NNW 11 16 1011.0 - 9.0 - Partly cloudy 5 - - - -
29/03:00pm 16.4 NNW 11 17 1011.1 - 8.2 Rain Mostly cloudy 7 - - - -
29/02:53pm 16.4 NNW 12 17 1011.1 - 7.8 - Partly cloudy 7 - - - -
29/02:30pm 16.4 N 10 15 1011.2 - 6.8 - Partly cloudy 8 - - - -
29/02:12pm 16.3 NNE 11 16 1011.1 - 6.0 - Partly cloudy 7 - - - -
29/02:00pm 16.3 NNE 10 15 1011.3 - 5.6 - Partly cloudy 7 - - - -
29/01:30pm 16.4 NNE 9 12 1011.3 - 4.0 - Partly cloudy 8 - - - -
29/01:00pm 16.5 NNE 8 10 1011.6 - 3.2 - Partly cloudy 6 - - - -
29/12:30pm 16.9 NNE 7 9 1011.9 - 2.6 - Partly cloudy 8 - - - -
29/12:00pm 16.6 NNE 7 9 1012.4 - 2.2 Rain Cloudy 7 - - - -
29/11:48am 16.7 NE 6 9 1012.5 - 2.0 - Partly cloudy 7 - - - -
29/11:30am 16.6 E 7 11 1012.8 - 1.6 - Partly cloudy 7 - - - -
29/11:08am 16.6 ESE 9 12 1013.1 - 0.8 - Partly cloudy 7 - - - -
29/11:00am 16.7 E 7 9 1013.5 - 0.6 - Partly cloudy 9 - - - -
29/10:30am 16.9 ENE 4 5 1013.9 - 0.2 - Partly cloudy 10 - - - -
29/10:00am 16.6 ENE 2 5 1014.0 - 0.0 - Partly cloudy 10 - - - -
29/09:30am 15.8 WNW 5 9 1014.6 - 0.0 - Partly cloudy 10 - - - -
29/09:00am 16.4 S 4 10 1014.8 - 0.6 - Mostly cloudy 10 - - - -
29/08:30am 16.1 SE 5 8 1014.4 - 0.6 - Cloudy 10 - - - -
29/08:00am 15.5 ESE 6 10 1014.0 - 0.6 - Partly cloudy 10 - - - -
29/07:30am 15.1 ESE 7 9 1014.3 - 0.6 - Cloudy 10 - - - -

Other Formats:

Comma delimited format used in spreadsheet applications
http://www.bom.gov.au/fwo/IDV60701/IDV60701.95957.axf

JavaScript Object Notation format (JSON) in row-major order
http://www.bom.gov.au/fwo/IDV60701/IDV60701.95957.json